Time;durP1;ratioP1;P1;durP2;ratioP2;P2;SDS_P1;SDS_P2;PMS_P1;PMS_P2;Temp;Humidity;BMP_temperature;BMP_pressure;BME280_temperature;BME280_humidity;BME280_pressure;Samples;Min_cycle;Max_cycle;Signal;HPM_P1;HPM_P2
2023/12/05 00:02:04;;;;;;;11.33;7.20;;;;;;;;;;770846;180;915238;-67
2023/12/05 00:04:29;;;;;;;11.80;7.60;;;;;;;;;;764747;181;817220;-66
2023/12/05 00:06:55;;;;;;;18.07;8.63;;;;;;;;;;766270;181;919072;-65
2023/12/05 00:09:21;;;;;;;14.60;7.63;;;;;;;;;;766226;180;918271;-66
2023/12/05 00:11:47;;;;;;;12.55;7.55;;;;;;;;;;779188;180;917751;-66
2023/12/05 00:14:13;;;;;;;13.30;8.13;;;;;;;;;;772858;178;817974;-67
2023/12/05 00:16:39;;;;;;;13.53;8.03;;;;;;;;;;774737;180;815590;-66
2023/12/05 00:19:04;;;;;;;17.40;8.97;;;;;;;;;;776422;181;817504;-66
2023/12/05 00:21:30;;;;;;;10.60;7.30;;;;;;;;;;771411;180;923222;-65
2023/12/05 00:23:56;;;;;;;12.50;7.43;;;;;;;;;;773320;180;917147;-67
2023/12/05 00:26:23;;;;;;;13.40;7.80;;;;;;;;;;773287;180;816655;-66
2023/12/05 00:28:49;;;;;;;13.30;7.73;;;;;;;;;;767537;180;899060;-65
2023/12/05 00:31:14;;;;;;;15.97;8.00;;;;;;;;;;758549;180;919151;-66
2023/12/05 00:33:40;;;;;;;14.33;9.00;;;;;;;;;;773564;177;918465;-66
2023/12/05 00:36:06;;;;;;;12.30;7.00;;;;;;;;;;779559;179;917333;-68
2023/12/05 00:38:33;;;;;;;12.87;7.20;;;;;;;;;;773378;180;918219;-67
2023/12/05 00:41:00;;;;;;;14.23;7.80;;;;;;;;;;770227;179;920678;-67
2023/12/05 00:43:24;;;;;;;13.27;7.20;;;;;;;;;;780767;178;864595;-67
2023/12/05 00:45:50;;;;;;;12.47;7.77;;;;;;;;;;764139;180;920899;-65
2023/12/05 00:48:16;;;;;;;11.27;6.83;;;;;;;;;;775509;180;818282;-65
2023/12/05 00:50:41;;;;;;;15.30;8.10;;;;;;;;;;781998;179;919311;-67
2023/12/05 00:53:07;;;;;;;10.57;6.80;;;;;;;;;;772228;180;918900;-66
2023/12/05 00:55:35;;;;;;;10.37;7.30;;;;;;;;;;771925;180;931550;-66
2023/12/05 00:57:59;;;;;;;11.15;6.37;;;;;;;;;;773726;180;916520;-67
2023/12/05 01:00:25;;;;;;;10.77;6.73;;;;;;;;;;779111;179;918632;-65
2023/12/05 01:02:50;;;;;;;11.80;7.30;;;;;;;;;;771033;181;919601;-67
2023/12/05 01:05:16;;;;;;;9.40;6.90;;;;;;;;;;773402;181;915212;-66
2023/12/05 01:07:42;;;;;;;12.37;7.50;;;;;;;;;;781186;180;916575;-66
2023/12/05 01:10:09;;;;;;;10.07;7.13;;;;;;;;;;768272;180;1124785;-66
2023/12/05 01:12:34;;;;;;;12.00;7.13;;;;;;;;;;778336;174;919635;-65
2023/12/05 01:15:00;;;;;;;10.43;6.50;;;;;;;;;;763711;180;918769;-67
2023/12/05 01:17:26;;;;;;;11.93;6.70;;;;;;;;;;764850;181;918618;-67
2023/12/05 01:19:52;;;;;;;11.20;6.93;;;;;;;;;;770599;179;919639;-68
2023/12/05 01:22:18;;;;;;;12.57;7.55;;;;;;;;;;775055;180;917664;-66
2023/12/05 01:24:44;;;;;;;11.30;6.93;;;;;;;;;;774764;180;919378;-67
2023/12/05 01:27:09;;;;;;;10.20;6.47;;;;;;;;;;770962;181;918824;-67
2023/12/05 01:29:35;;;;;;;8.95;5.53;;;;;;;;;;773541;178;1051734;-66
2023/12/05 01:32:01;;;;;;;10.50;5.60;;;;;;;;;;778714;181;800674;-67
2023/12/05 01:34:27;;;;;;;12.00;6.90;;;;;;;;;;773080;180;918661;-66
2023/12/05 01:36:53;;;;;;;11.50;5.83;;;;;;;;;;769669;180;915006;-67
2023/12/05 01:39:19;;;;;;;11.47;7.33;;;;;;;;;;777648;179;913129;-68
2023/12/05 01:41:44;;;;;;;9.67;6.40;;;;;;;;;;760949;181;918256;-68
2023/12/05 01:44:10;;;;;;;8.83;5.37;;;;;;;;;;772960;181;817283;-66
2023/12/05 01:46:36;;;;;;;10.50;5.90;;;;;;;;;;775783;179;934182;-68
2023/12/05 01:49:02;;;;;;;11.17;6.33;;;;;;;;;;773468;180;916622;-68
2023/12/05 01:51:28;;;;;;;9.30;5.93;;;;;;;;;;773266;177;920933;-66
2023/12/05 01:53:54;;;;;;;11.10;6.47;;;;;;;;;;763402;181;916483;-68
2023/12/05 01:56:20;;;;;;;7.40;4.77;;;;;;;;;;776147;180;919100;-67
2023/12/05 01:58:45;;;;;;;11.17;5.10;;;;;;;;;;771878;181;921254;-67
2023/12/05 02:01:11;;;;;;;8.57;5.47;;;;;;;;;;775973;180;845570;-67
2023/12/05 02:03:37;;;;;;;11.07;5.50;;;;;;;;;;781555;180;918462;-69
2023/12/05 02:06:03;;;;;;;11.47;5.87;;;;;;;;;;775955;177;918913;-67
2023/12/05 02:08:29;;;;;;;7.10;4.20;;;;;;;;;;773049;180;927053;-68
2023/12/05 02:10:55;;;;;;;10.97;5.63;;;;;;;;;;780057;180;910307;-67
2023/12/05 02:13:20;;;;;;;7.40;4.60;;;;;;;;;;768492;180;918507;-66
2023/12/05 02:15:46;;;;;;;9.13;5.20;;;;;;;;;;771273;180;915464;-66
2023/12/05 02:18:15;;;;;;;7.95;4.43;;;;;;;;;;775404;179;907805;-67
2023/12/05 02:20:51;;;;;;;9.60;5.50;;;;;;;;;;770464;178;914307;-68
2023/12/05 02:23:22;;;;;;;6.63;4.37;;;;;;;;;;765897;181;914637;-66
2023/12/05 02:25:50;;;;;;;8.97;4.73;;;;;;;;;;771050;180;918775;-69
2023/12/05 02:28:16;;;;;;;9.40;5.73;;;;;;;;;;774786;181;919149;-67
2023/12/05 02:30:42;;;;;;;13.03;6.50;;;;;;;;;;778628;178;919392;-68
2023/12/05 02:33:08;;;;;;;9.23;5.53;;;;;;;;;;766224;180;918665;-68
2023/12/05 02:35:33;;;;;;;8.30;5.03;;;;;;;;;;768577;181;914625;-68
2023/12/05 02:38:00;;;;;;;8.20;5.17;;;;;;;;;;776896;178;915149;-67
2023/12/05 02:40:27;;;;;;;8.63;5.12;;;;;;;;;;774153;178;914913;-68
2023/12/05 02:42:53;;;;;;;9.00;5.70;;;;;;;;;;771576;178;913148;-68
2023/12/05 02:45:19;;;;;;;10.17;6.17;;;;;;;;;;776009;180;935387;-67
2023/12/05 02:47:44;;;;;;;9.73;6.60;;;;;;;;;;775174;180;816099;-66
2023/12/05 02:50:10;;;;;;;10.40;5.73;;;;;;;;;;766708;180;919234;-66
2023/12/05 02:52:36;;;;;;;7.70;4.33;;;;;;;;;;771987;181;918644;-67
2023/12/05 02:55:02;;;;;;;10.20;5.70;;;;;;;;;;780675;179;937561;-68
2023/12/05 02:57:28;;;;;;;11.20;6.40;;;;;;;;;;772523;177;920481;-68
2023/12/05 02:59:54;;;;;;;10.60;6.03;;;;;;;;;;758262;184;918694;-68
2023/12/05 03:02:20;;;;;;;10.43;6.20;;;;;;;;;;776175;181;918108;-66
2023/12/05 03:04:45;;;;;;;9.40;5.30;;;;;;;;;;771272;180;919469;-68
2023/12/05 03:07:11;;;;;;;8.30;5.50;;;;;;;;;;767790;179;918034;-66
2023/12/05 03:09:38;;;;;;;11.10;5.43;;;;;;;;;;778471;180;913835;-67
2023/12/05 03:12:04;;;;;;;11.90;5.90;;;;;;;;;;775710;180;919364;-65
2023/12/05 03:14:30;;;;;;;9.23;4.90;;;;;;;;;;770888;180;940833;-68
2023/12/05 03:16:56;;;;;;;10.70;6.27;;;;;;;;;;771793;179;919330;-66
2023/12/05 03:19:21;;;;;;;10.23;6.37;;;;;;;;;;777674;180;919015;-69
2023/12/05 03:21:47;;;;;;;8.27;5.60;;;;;;;;;;774079;180;925496;-69
2023/12/05 03:24:13;;;;;;;9.40;5.47;;;;;;;;;;773344;178;1023968;-67
2023/12/05 03:26:39;;;;;;;11.63;6.37;;;;;;;;;;776665;180;921273;-67
2023/12/05 03:29:05;;;;;;;8.98;5.87;;;;;;;;;;774294;177;918728;-66
2023/12/05 03:31:33;;;;;;;9.63;5.80;;;;;;;;;;771019;177;918953;-67
2023/12/05 03:33:59;;;;;;;8.03;5.73;;;;;;;;;;770088;180;909127;-67
2023/12/05 03:36:25;;;;;;;9.70;6.40;;;;;;;;;;775210;179;859140;-68
2023/12/05 03:38:51;;;;;;;9.83;6.13;;;;;;;;;;768457;180;920013;-67
2023/12/05 03:41:17;;;;;;;11.87;6.57;;;;;;;;;;760222;182;906021;-67
2023/12/05 03:43:43;;;;;;;11.77;7.10;;;;;;;;;;772095;180;938685;-67
2023/12/05 03:46:08;;;;;;;10.73;6.03;;;;;;;;;;762928;181;914227;-68
2023/12/05 03:48:34;;;;;;;10.83;5.97;;;;;;;;;;770125;178;1020040;-67
2023/12/05 03:51:00;;;;;;;11.23;7.07;;;;;;;;;;766424;181;918785;-66
2023/12/05 03:53:26;;;;;;;10.83;6.70;;;;;;;;;;770038;177;916610;-68
2023/12/05 03:55:52;;;;;;;13.15;7.05;;;;;;;;;;765209;179;839004;-66
2023/12/05 03:58:18;;;;;;;12.20;6.70;;;;;;;;;;771182;178;922213;-66
2023/12/05 04:00:44;;;;;;;11.03;6.90;;;;;;;;;;772588;178;923358;-66
2023/12/05 04:03:10;;;;;;;11.80;7.10;;;;;;;;;;774225;180;928172;-68
2023/12/05 04:05:35;;;;;;;11.13;7.27;;;;;;;;;;768876;181;917804;-67
2023/12/05 04:08:01;;;;;;;10.87;6.70;;;;;;;;;;777660;180;959828;-68
2023/12/05 04:10:27;;;;;;;11.93;6.63;;;;;;;;;;769815;180;944985;-67
2023/12/05 04:12:53;;;;;;;11.05;6.68;;;;;;;;;;772652;180;920709;-67
2023/12/05 04:15:19;;;;;;;10.27;5.90;;;;;;;;;;777607;180;918633;-67
2023/12/05 04:17:45;;;;;;;10.40;7.03;;;;;;;;;;772913;179;914410;-68
2023/12/05 04:20:11;;;;;;;12.00;7.20;;;;;;;;;;776335;180;815799;-67
2023/12/05 04:22:37;;;;;;;10.80;6.70;;;;;;;;;;778649;180;916799;-67
2023/12/05 04:25:04;;;;;;;12.70;8.30;;;;;;;;;;770453;179;914191;-68
2023/12/05 04:27:29;;;;;;;10.83;6.70;;;;;;;;;;772090;181;929627;-66
2023/12/05 04:29:56;;;;;;;12.20;7.03;;;;;;;;;;773623;180;819080;-66
2023/12/05 04:32:21;;;;;;;14.90;7.77;;;;;;;;;;771773;180;932944;-67
2023/12/05 04:34:47;;;;;;;11.43;7.03;;;;;;;;;;774837;180;919672;-67
2023/12/05 04:37:13;;;;;;;14.47;7.77;;;;;;;;;;769676;180;918375;-67
2023/12/05 04:39:39;;;;;;;12.05;7.10;;;;;;;;;;775485;177;840428;-67
2023/12/05 04:42:05;;;;;;;11.23;6.97;;;;;;;;;;770814;180;917777;-67
2023/12/05 04:44:31;;;;;;;13.40;7.60;;;;;;;;;;768121;180;983602;-67
2023/12/05 04:46:57;;;;;;;10.20;6.50;;;;;;;;;;776267;177;919377;-66
2023/12/05 04:49:23;;;;;;;11.20;7.10;;;;;;;;;;771778;178;919172;-68
2023/12/05 04:51:49;;;;;;;12.00;6.67;;;;;;;;;;760923;184;919540;-67
2023/12/05 04:54:15;;;;;;;11.20;7.30;;;;;;;;;;777392;180;818369;-67
2023/12/05 04:56:41;;;;;;;11.57;8.80;;;;;;;;;;769178;180;900696;-66
2023/12/05 04:59:07;;;;;;;12.07;7.80;;;;;;;;;;771732;178;948746;-67
2023/12/05 05:01:32;;;;;;;13.47;8.30;;;;;;;;;;774716;179;918691;-67
2023/12/05 05:03:58;;;;;;;16.60;8.20;;;;;;;;;;781090;180;641982;-66
2023/12/05 05:06:24;;;;;;;15.53;8.63;;;;;;;;;;776160;178;637325;-67
2023/12/05 05:08:50;;;;;;;15.60;9.07;;;;;;;;;;766619;180;917505;-67
2023/12/05 05:11:16;;;;;;;14.17;8.70;;;;;;;;;;777201;180;829082;-65
2023/12/05 05:13:42;;;;;;;17.37;9.68;;;;;;;;;;774044;180;814247;-67
2023/12/05 05:16:08;;;;;;;13.30;9.03;;;;;;;;;;768789;179;636847;-68
2023/12/05 05:18:34;;;;;;;16.87;10.13;;;;;;;;;;769451;180;627685;-67
2023/12/05 05:20:59;;;;;;;17.40;10.63;;;;;;;;;;773415;180;620864;-68
2023/12/05 05:23:25;;;;;;;15.30;9.30;;;;;;;;;;776338;180;637104;-67
2023/12/05 05:25:51;;;;;;;14.90;9.60;;;;;;;;;;769535;179;816238;-66
2023/12/05 05:28:17;;;;;;;14.77;8.90;;;;;;;;;;763144;180;817862;-67
2023/12/05 05:30:43;;;;;;;17.77;9.60;;;;;;;;;;773793;176;863516;-68
2023/12/05 05:33:09;;;;;;;16.80;10.30;;;;;;;;;;775440;178;839721;-66
2023/12/05 05:35:34;;;;;;;17.43;10.77;;;;;;;;;;774331;180;820600;-68
2023/12/05 05:38:00;;;;;;;23.83;12.60;;;;;;;;;;774434;180;816734;-67
2023/12/05 05:40:27;;;;;;;22.40;13.30;;;;;;;;;;774813;177;919156;-68
2023/12/05 05:42:52;;;;;;;19.23;11.00;;;;;;;;;;780898;180;813721;-67
2023/12/05 05:45:18;;;;;;;14.43;9.77;;;;;;;;;;773791;180;918461;-66
2023/12/05 05:47:44;;;;;;;18.70;11.07;;;;;;;;;;775309;178;817711;-66
2023/12/05 05:50:11;;;;;;;20.37;12.40;;;;;;;;;;777153;178;656574;-67
2023/12/05 05:52:36;;;;;;;17.50;11.10;;;;;;;;;;775229;180;650301;-66
2023/12/05 05:55:01;;;;;;;20.33;11.90;;;;;;;;;;768455;178;628448;-66
2023/12/05 05:57:28;;;;;;;17.47;10.67;;;;;;;;;;765214;180;626063;-68
2023/12/05 05:59:53;;;;;;;17.70;11.60;;;;;;;;;;778555;177;919156;-67
2023/12/05 06:02:19;;;;;;;22.90;11.67;;;;;;;;;;772259;180;921553;-68
2023/12/05 06:04:45;;;;;;;20.00;11.13;;;;;;;;;;772149;181;916684;-67
2023/12/05 06:07:11;;;;;;;26.83;11.30;;;;;;;;;;773912;180;914683;-67
2023/12/05 06:09:36;;;;;;;20.17;12.20;;;;;;;;;;768642;177;916316;-65
2023/12/05 06:12:03;;;;;;;19.27;11.00;;;;;;;;;;765263;181;1015454;-67
2023/12/05 06:14:29;;;;;;;24.10;12.93;;;;;;;;;;772134;180;919584;-66
2023/12/05 06:16:55;;;;;;;20.65;12.35;;;;;;;;;;766139;179;928789;-67
2023/12/05 06:19:20;;;;;;;21.03;13.43;;;;;;;;;;773236;180;914398;-65
2023/12/05 06:21:46;;;;;;;20.63;12.03;;;;;;;;;;774539;180;925846;-66
2023/12/05 06:24:12;;;;;;;19.70;11.80;;;;;;;;;;775409;180;920567;-67
2023/12/05 06:26:38;;;;;;;22.40;13.20;;;;;;;;;;769052;181;916441;-67
2023/12/05 06:29:04;;;;;;;24.50;14.07;;;;;;;;;;767680;181;1841026;-67
2023/12/05 06:31:30;;;;;;;21.67;13.33;;;;;;;;;;778470;179;923864;-66
2023/12/05 06:33:56;;;;;;;19.13;11.70;;;;;;;;;;770421;180;918668;-67
2023/12/05 06:36:21;;;;;;;21.02;11.70;;;;;;;;;;771748;180;816260;-65
2023/12/05 06:38:47;;;;;;;23.63;13.20;;;;;;;;;;775248;180;905525;-66
2023/12/05 06:41:13;;;;;;;18.87;11.87;;;;;;;;;;774428;179;923370;-65
2023/12/05 06:43:39;;;;;;;22.73;12.93;;;;;;;;;;774277;178;920806;-67
2023/12/05 06:46:05;;;;;;;23.77;11.70;;;;;;;;;;777641;179;881914;-66
2023/12/05 06:48:31;;;;;;;18.60;12.63;;;;;;;;;;771793;179;939685;-67
2023/12/05 06:50:56;;;;;;;29.90;13.83;;;;;;;;;;770926;180;934963;-66
2023/12/05 06:53:22;;;;;;;22.00;13.93;;;;;;;;;;773355;180;918915;-66
2023/12/05 06:55:48;;;;;;;17.77;12.10;;;;;;;;;;778078;180;916652;-66
2023/12/05 06:58:14;;;;;;;20.30;11.77;;;;;;;;;;772908;180;919505;-66
2023/12/05 07:00:40;;;;;;;21.87;12.20;;;;;;;;;;774764;180;923442;-67
2023/12/05 07:03:06;;;;;;;18.62;12.45;;;;;;;;;;779269;178;846019;-66
2023/12/05 07:05:31;;;;;;;23.83;12.63;;;;;;;;;;773125;181;923114;-66
2023/12/05 07:07:57;;;;;;;18.30;11.50;;;;;;;;;;770706;180;911546;-65
2023/12/05 07:10:23;;;;;;;18.77;13.00;;;;;;;;;;777992;180;915515;-66
2023/12/05 07:12:49;;;;;;;20.03;12.53;;;;;;;;;;773648;180;816809;-66
2023/12/05 07:15:15;;;;;;;22.77;12.87;;;;;;;;;;774489;177;818448;-66
2023/12/05 07:17:41;;;;;;;21.40;12.40;;;;;;;;;;772449;180;927540;-66
2023/12/05 07:20:07;;;;;;;21.67;12.50;;;;;;;;;;769572;181;914081;-66
2023/12/05 07:22:33;;;;;;;27.20;13.30;;;;;;;;;;773995;178;917391;-67
2023/12/05 07:24:59;;;;;;;19.27;12.40;;;;;;;;;;767100;180;910623;-66
2023/12/05 07:27:24;;;;;;;27.03;18.73;;;;;;;;;;773603;180;913821;-67
2023/12/05 07:29:50;;;;;;;29.90;17.33;;;;;;;;;;766519;181;921877;-66
2023/12/05 07:32:16;;;;;;;31.13;17.40;;;;;;;;;;772848;178;819761;-64
2023/12/05 07:34:43;;;;;;;23.97;15.57;;;;;;;;;;777471;178;920604;-66
2023/12/05 07:37:08;;;;;;;21.60;13.70;;;;;;;;;;763915;179;921812;-66
2023/12/05 07:39:34;;;;;;;25.00;12.90;;;;;;;;;;766436;181;918977;-66
2023/12/05 07:42:00;;;;;;;19.63;13.13;;;;;;;;;;778323;181;822166;-66
2023/12/05 07:44:25;;;;;;;24.00;12.63;;;;;;;;;;772733;178;920571;-66
2023/12/05 07:46:51;;;;;;;23.50;12.80;;;;;;;;;;768209;179;915283;-65
2023/12/05 07:49:17;;;;;;;26.97;13.83;;;;;;;;;;773571;181;914003;-67
2023/12/05 07:51:43;;;;;;;21.47;11.97;;;;;;;;;;766291;180;920043;-67
2023/12/05 07:54:09;;;;;;;16.40;10.97;;;;;;;;;;773982;179;916043;-66
2023/12/05 07:56:35;;;;;;;21.53;14.20;;;;;;;;;;774897;177;919435;-66
2023/12/05 07:59:00;;;;;;;18.27;11.37;;;;;;;;;;780934;179;913531;-65
2023/12/05 08:01:26;;;;;;;21.97;13.60;;;;;;;;;;776395;180;816011;-67
2023/12/05 08:03:53;;;;;;;20.20;11.60;;;;;;;;;;773739;180;814506;-67
2023/12/05 08:06:18;;;;;;;18.53;10.47;;;;;;;;;;783419;180;617186;-68
2023/12/05 08:08:44;;;;;;;20.43;11.80;;;;;;;;;;770777;178;621083;-66
2023/12/05 08:11:11;;;;;;;25.80;11.20;;;;;;;;;;771073;178;1021564;-67
2023/12/05 08:13:35;;;;;;;18.53;10.07;;;;;;;;;;777747;179;920715;-66
2023/12/05 08:16:01;;;;;;;18.57;11.13;;;;;;;;;;770547;180;845287;-66
2023/12/05 08:18:27;;;;;;;18.73;9.33;;;;;;;;;;774322;180;918718;-67
2023/12/05 08:20:53;;;;;;;17.52;10.10;;;;;;;;;;774490;179;919982;-67
2023/12/05 08:23:20;;;;;;;19.80;10.50;;;;;;;;;;780555;180;617270;-66
2023/12/05 08:25:45;;;;;;;15.83;10.20;;;;;;;;;;766001;179;917403;-67
2023/12/05 08:28:11;;;;;;;17.30;10.20;;;;;;;;;;763534;180;918981;-67
2023/12/05 08:30:37;;;;;;;19.67;10.77;;;;;;;;;;778570;180;891510;-67
2023/12/05 08:33:02;;;;;;;22.87;11.68;;;;;;;;;;763869;180;914954;-66
2023/12/05 08:35:28;;;;;;;17.70;11.30;;;;;;;;;;762301;180;1014111;-66
2023/12/05 08:37:54;;;;;;;21.30;12.13;;;;;;;;;;776274;180;916144;-66
2023/12/05 08:40:20;;;;;;;18.43;12.00;;;;;;;;;;773283;180;916310;-66
2023/12/05 08:42:46;;;;;;;19.60;11.70;;;;;;;;;;768047;180;927979;-67
2023/12/05 08:45:11;;;;;;;23.45;11.55;;;;;;;;;;761409;184;916570;-68
2023/12/05 08:47:37;;;;;;;21.90;11.67;;;;;;;;;;769948;181;917572;-66
2023/12/05 08:50:04;;;;;;;21.23;12.50;;;;;;;;;;769434;180;864793;-67
2023/12/05 08:52:29;;;;;;;27.67;12.10;;;;;;;;;;769400;181;918926;-67
2023/12/05 08:54:56;;;;;;;19.80;11.73;;;;;;;;;;776866;180;919410;-67
2023/12/05 08:57:22;;;;;;;18.13;11.03;;;;;;;;;;769783;179;917702;-66
2023/12/05 08:59:48;;;;;;;17.77;11.80;;;;;;;;;;771158;180;919322;-67
2023/12/05 09:02:14;;;;;;;24.47;10.53;;;;;;;;;;775702;178;918498;-66
2023/12/05 09:04:39;;;;;;;19.10;10.87;;;;;;;;;;775525;179;918333;-66
2023/12/05 09:07:06;;;;;;;18.25;10.68;;;;;;;;;;775159;179;924087;-66
2023/12/05 09:09:32;;;;;;;17.10;11.55;;;;;;;;;;776876;180;918538;-66
2023/12/05 09:11:59;;;;;;;18.00;11.17;;;;;;;;;;776200;177;902292;-68
2023/12/05 09:14:23;;;;;;;19.10;10.23;;;;;;;;;;776886;177;818173;-67
2023/12/05 09:16:49;;;;;;;20.67;12.53;;;;;;;;;;774479;177;913197;-67
2023/12/05 09:19:15;;;;;;;21.97;12.00;;;;;;;;;;775679;180;1022948;-67
2023/12/05 09:21:41;;;;;;;17.73;10.53;;;;;;;;;;771124;179;884926;-66
2023/12/05 09:24:08;;;;;;;18.97;11.70;;;;;;;;;;775526;178;918154;-69
2023/12/05 09:26:33;;;;;;;21.83;14.27;;;;;;;;;;777276;177;920834;-67
2023/12/05 09:28:59;;;;;;;19.75;11.75;;;;;;;;;;775400;179;816752;-67
2023/12/05 09:31:25;;;;;;;17.30;11.63;;;;;;;;;;771900;180;917463;-67
2023/12/05 09:33:51;;;;;;;20.77;12.80;;;;;;;;;;776919;181;845936;-68
2023/12/05 09:36:17;;;;;;;21.03;12.87;;;;;;;;;;774208;180;902688;-68
2023/12/05 09:38:42;;;;;;;23.97;14.17;;;;;;;;;;771097;179;915762;-67
2023/12/05 09:41:10;;;;;;;24.30;13.20;;;;;;;;;;770642;180;919059;-66
2023/12/05 09:43:34;;;;;;;27.35;13.45;;;;;;;;;;774150;180;921899;-67
2023/12/05 09:46:00;;;;;;;22.80;15.20;;;;;;;;;;772671;179;918795;-67
2023/12/05 09:48:27;;;;;;;24.00;15.00;;;;;;;;;;774402;179;812615;-68
2023/12/05 09:50:53;;;;;;;26.90;16.30;;;;;;;;;;776237;178;905481;-68
2023/12/05 09:53:18;;;;;;;20.03;13.70;;;;;;;;;;773837;179;916086;-68
2023/12/05 09:55:44;;;;;;;24.80;14.50;;;;;;;;;;772689;180;917081;-67
2023/12/05 09:58:10;;;;;;;22.00;11.83;;;;;;;;;;778180;180;917995;-68
2023/12/05 10:00:36;;;;;;;22.87;14.17;;;;;;;;;;771658;178;918869;-67
2023/12/05 10:03:02;;;;;;;23.07;13.97;;;;;;;;;;768875;179;1017759;-67
2023/12/05 10:05:28;;;;;;;19.80;13.10;;;;;;;;;;773333;180;953549;-67
2023/12/05 10:07:54;;;;;;;20.87;14.20;;;;;;;;;;770320;180;920807;-67
2023/12/05 10:10:19;;;;;;;23.80;13.87;;;;;;;;;;763985;181;915406;-68
2023/12/05 10:12:45;;;;;;;23.23;14.40;;;;;;;;;;773271;179;816828;-68
2023/12/05 10:15:11;;;;;;;24.70;14.33;;;;;;;;;;776286;180;915587;-67
2023/12/05 10:17:37;;;;;;;24.03;12.70;;;;;;;;;;773151;179;918584;-67
2023/12/05 10:20:04;;;;;;;21.77;14.33;;;;;;;;;;767821;180;915983;-67
2023/12/05 10:22:29;;;;;;;19.47;12.90;;;;;;;;;;778825;181;917489;-69
2023/12/05 10:24:55;;;;;;;25.03;14.57;;;;;;;;;;768886;181;816430;-67
2023/12/05 10:27:21;;;;;;;22.40;13.83;;;;;;;;;;774288;180;921448;-68
2023/12/05 10:29:46;;;;;;;21.35;12.77;;;;;;;;;;777890;180;816859;-67
2023/12/05 10:32:12;;;;;;;20.87;13.20;;;;;;;;;;774264;180;917553;-68
2023/12/05 10:34:44;;;;;;;21.05;14.23;;;;;;;;;;772137;180;922504;-70
2023/12/05 10:37:10;;;;;;;24.47;11.83;;;;;;;;;;772273;178;922406;-68
2023/12/05 10:39:36;;;;;;;20.77;12.82;;;;;;;;;;769081;180;880300;-69
2023/12/05 10:42:02;;;;;;;22.67;14.67;;;;;;;;;;768154;180;915565;-67
2023/12/05 10:44:27;;;;;;;20.80;12.20;;;;;;;;;;774655;180;835596;-67
2023/12/05 10:46:56;;;;;;;26.50;14.80;;;;;;;;;;777069;179;1013387;-69
2023/12/05 10:49:22;;;;;;;20.73;13.80;;;;;;;;;;777867;178;918963;-68
2023/12/05 10:51:48;;;;;;;25.20;15.30;;;;;;;;;;771921;180;917715;-66
2023/12/05 10:54:14;;;;;;;23.25;14.27;;;;;;;;;;772321;180;917733;-68
2023/12/05 10:56:39;;;;;;;24.40;15.40;;;;;;;;;;778649;180;915753;-68
2023/12/05 10:59:05;;;;;;;22.53;13.37;;;;;;;;;;767433;180;919347;-68
2023/12/05 11:01:31;;;;;;;26.80;15.00;;;;;;;;;;758122;181;921325;-66
2023/12/05 11:04:00;;;;;;;26.03;14.63;;;;;;;;;;774443;180;919570;-65
2023/12/05 11:06:24;;;;;;;21.73;14.37;;;;;;;;;;772536;181;914924;-66
2023/12/05 11:08:49;;;;;;;26.20;14.53;;;;;;;;;;766104;179;918186;-68
2023/12/05 11:11:15;;;;;;;28.63;14.27;;;;;;;;;;773603;178;816373;-68
2023/12/05 11:13:40;;;;;;;27.60;14.60;;;;;;;;;;773464;180;1014740;-69
2023/12/05 11:16:09;;;;;;;21.57;14.40;;;;;;;;;;772881;180;919662;-65
2023/12/05 11:18:32;;;;;;;20.70;12.83;;;;;;;;;;769139;180;917917;-66
2023/12/05 11:20:58;;;;;;;22.40;13.60;;;;;;;;;;774759;179;819166;-65
2023/12/05 11:23:39;;;;;;;26.33;15.20;;;;;;;;;;767862;178;919132;-68
2023/12/05 11:26:20;;;;;;;28.50;16.30;;;;;;;;;;768851;179;918596;-66
2023/12/05 11:28:52;;;;;;;26.53;15.80;;;;;;;;;;774624;179;919603;-69
2023/12/05 11:31:23;;;;;;;26.37;14.80;;;;;;;;;;774100;179;950014;-69
2023/12/05 11:33:58;;;;;;;21.87;14.00;;;;;;;;;;779345;178;918122;-69
2023/12/05 11:36:28;;;;;;;26.67;13.30;;;;;;;;;;773592;180;919924;-66
2023/12/05 11:38:53;;;;;;;25.40;14.27;;;;;;;;;;775887;177;916106;-66
2023/12/05 11:41:20;;;;;;;23.90;14.43;;;;;;;;;;773181;177;817011;-66
2023/12/05 11:44:05;;;;;;;23.87;15.68;;;;;;;;;;778559;177;913612;-67
2023/12/05 11:46:33;;;;;;;22.27;14.40;;;;;;;;;;770116;180;918082;-65
2023/12/05 11:48:59;;;;;;;23.10;13.83;;;;;;;;;;778546;178;908258;-66
2023/12/05 11:51:24;;;;;;;22.73;14.03;;;;;;;;;;762520;178;921970;-66
2023/12/05 11:53:50;;;;;;;24.50;14.93;;;;;;;;;;769457;181;920153;-65
2023/12/05 11:56:17;;;;;;;23.50;15.70;;;;;;;;;;777473;177;913570;-65
2023/12/05 11:58:43;;;;;;;27.90;17.00;;;;;;;;;;756000;181;918219;-65
2023/12/05 12:01:09;;;;;;;26.05;15.73;;;;;;;;;;764984;181;919695;-68
2023/12/05 12:03:40;;;;;;;27.27;15.90;;;;;;;;;;778309;178;916333;-67
2023/12/05 12:06:09;;;;;;;30.33;17.57;;;;;;;;;;777866;180;915881;-65
2023/12/05 12:08:32;;;;;;;30.67;17.87;;;;;;;;;;771230;178;795846;-68
2023/12/05 12:10:58;;;;;;;31.23;18.13;;;;;;;;;;771875;180;933241;-67
2023/12/05 12:13:24;;;;;;;36.03;17.30;;;;;;;;;;777676;180;920307;-66
2023/12/05 12:15:50;;;;;;;28.60;18.27;;;;;;;;;;775012;180;815472;-65
2023/12/05 12:18:16;;;;;;;28.07;16.73;;;;;;;;;;770662;179;919716;-65
2023/12/05 12:20:41;;;;;;;37.33;17.90;;;;;;;;;;775314;180;917486;-65
2023/12/05 12:23:07;;;;;;;31.73;17.37;;;;;;;;;;763949;178;922191;-66
2023/12/05 12:25:33;;;;;;;31.80;17.30;;;;;;;;;;766998;181;917765;-65
2023/12/05 12:28:00;;;;;;;28.47;16.77;;;;;;;;;;772881;177;917472;-64
2023/12/05 12:30:25;;;;;;;29.93;17.43;;;;;;;;;;773675;180;1024353;-66
2023/12/05 12:32:51;;;;;;;26.90;17.17;;;;;;;;;;773553;178;917776;-65
2023/12/05 12:35:19;;;;;;;28.10;18.47;;;;;;;;;;767017;180;916083;-65
2023/12/05 12:37:43;;;;;;;34.70;17.80;;;;;;;;;;779195;178;921775;-66
2023/12/05 12:40:11;;;;;;;33.90;19.80;;;;;;;;;;777158;177;920447;-64
2023/12/05 12:42:35;;;;;;;25.80;16.90;;;;;;;;;;772722;180;919695;-66
2023/12/05 12:45:01;;;;;;;24.10;16.10;;;;;;;;;;778713;180;919282;-66
2023/12/05 12:47:27;;;;;;;30.02;18.27;;;;;;;;;;768111;180;820272;-65
2023/12/05 12:49:53;;;;;;;28.70;17.10;;;;;;;;;;772050;178;913053;-67
2023/12/05 12:52:19;;;;;;;33.97;17.85;;;;;;;;;;777326;180;920520;-66
2023/12/05 12:54:45;;;;;;;27.07;16.23;;;;;;;;;;762743;180;920456;-67
2023/12/05 12:57:11;;;;;;;29.00;17.13;;;;;;;;;;769540;179;912636;-66
2023/12/05 12:59:36;;;;;;;30.17;17.60;;;;;;;;;;774109;180;925040;-64
2023/12/05 13:02:02;;;;;;;25.87;16.70;;;;;;;;;;777617;180;884795;-67
2023/12/05 13:04:28;;;;;;;30.80;17.17;;;;;;;;;;771161;177;916789;-66
2023/12/05 13:06:54;;;;;;;28.07;16.47;;;;;;;;;;773456;178;916175;-66
2023/12/05 13:09:20;;;;;;;25.10;17.00;;;;;;;;;;778431;180;919891;-65
2023/12/05 13:11:46;;;;;;;25.27;16.33;;;;;;;;;;770705;180;919067;-65
2023/12/05 13:14:12;;;;;;;27.20;16.70;;;;;;;;;;766457;180;919695;-64
2023/12/05 13:16:37;;;;;;;32.43;17.87;;;;;;;;;;776594;177;914888;-65
2023/12/05 13:19:03;;;;;;;26.43;16.10;;;;;;;;;;772846;178;939772;-65
2023/12/05 13:21:32;;;;;;;27.10;16.17;;;;;;;;;;770301;180;927837;-65
2023/12/05 13:23:57;;;;;;;31.23;18.07;;;;;;;;;;770888;181;919511;-65
2023/12/05 13:26:23;;;;;;;31.23;18.60;;;;;;;;;;776299;178;918829;-65
2023/12/05 13:28:48;;;;;;;30.73;17.33;;;;;;;;;;774217;180;916824;-66
2023/12/05 13:31:14;;;;;;;28.43;16.77;;;;;;;;;;773365;180;821051;-65
2023/12/05 13:33:40;;;;;;;33.57;18.60;;;;;;;;;;771275;180;917967;-66
2023/12/05 13:36:06;;;;;;;26.60;16.57;;;;;;;;;;768009;180;919360;-65
2023/12/05 13:38:33;;;;;;;30.40;18.57;;;;;;;;;;773291;180;918792;-65
2023/12/05 13:40:58;;;;;;;31.10;18.58;;;;;;;;;;775861;180;917542;-65
2023/12/05 13:43:24;;;;;;;29.53;17.30;;;;;;;;;;773497;180;920386;-67
2023/12/05 13:45:50;;;;;;;36.57;19.83;;;;;;;;;;770340;178;920413;-65
2023/12/05 13:48:16;;;;;;;35.30;17.07;;;;;;;;;;773129;180;948832;-65
2023/12/05 13:50:41;;;;;;;29.35;17.77;;;;;;;;;;772107;178;919265;-66
2023/12/05 13:53:07;;;;;;;32.13;17.57;;;;;;;;;;774598;180;919043;-65
2023/12/05 13:55:33;;;;;;;30.23;17.00;;;;;;;;;;769685;179;916125;-66
2023/12/05 13:57:59;;;;;;;26.27;17.80;;;;;;;;;;776382;178;819186;-66
2023/12/05 14:00:25;;;;;;;28.13;18.00;;;;;;;;;;771412;178;909356;-67
2023/12/05 14:02:51;;;;;;;23.93;16.10;;;;;;;;;;774954;180;918924;-66
2023/12/05 14:05:17;;;;;;;25.43;15.50;;;;;;;;;;766585;178;924442;-65